AGROMETEOROLOŠKI PORTAL

vinorodna pokrajina

Temelj dobrega kmetovanja

Pregled podatkov za lokacijo Pohorski dvor, meteorološka postaja 513653

Pregled senzorjev na lokaciji

ID Ime Zadnja
vrednost
Datum in čas
meritve
(lokalni čas)
Tip
senzorja
5311 Omočenost lista (1,5 m) (U) 9 U 25.9.2022 21:30 A730WET
5312 Padavine (mm) 0,2 mm 25.9.2022 21:30 Generic 0.2 mm
5314 Relativna zračna vlaga (2 m) (%RH) 98 %RH 25.9.2022 21:30 50YA
5313 Temperatura (2 m) (°C) 12,5 °C 25.9.2022 21:30 50YA

Pregled podatkov zadnjih 24 ur

Zap.
št.
Datum in čas
(lokalni čas)
Pohorski dvor
Omočenost
lista
(1,5
m)
Padavine Relativna
zračna
vlaga
(2
m)
Temperatura
(2
m)
1 25.9.2022 21:30 9 0,2 97,9 12,5
2 25.9.2022 21:00 8 0 97,8 12,5
3 25.9.2022 20:30 9 0 97,7 12,5
4 25.9.2022 20:00 9 0 97,6 12,4
5 25.9.2022 19:30 9 0,2 97,3 12,4
6 25.9.2022 19:00 9 0 97,1 12,5
7 25.9.2022 18:30 7 0 97 12,6
8 25.9.2022 18:00 5 0 96,9 12,9
9 25.9.2022 17:30 9 0 96,8 13
10 25.9.2022 17:00 8 0,4 96,7 13
11 25.9.2022 16:30 9 0 96,5 13
12 25.9.2022 16:00 9 0,2 96,8 13
13 25.9.2022 15:30 9 0,2 96,7 12,7
14 25.9.2022 15:00 9 0 96,6 12,9
15 25.9.2022 14:30 10 0,2 96,4 13,2
16 25.9.2022 14:00 9 0,2 96,8 13,2
17 25.9.2022 13:30 9 0,4 96,9 13,2
18 25.9.2022 13:00 10 0,6 97 13
19 25.9.2022 12:30 10 0 97,4 12,9
20 25.9.2022 12:00 8 0,2 97,6 12,9
21 25.9.2022 11:30 9 0 97,6 12,6
22 25.9.2022 11:00 9 0,2 97,6 12,6
23 25.9.2022 10:30 9 0,4 97,4 12,4
24 25.9.2022 10:00 9 0,8 97,4 12,3
25 25.9.2022 09:30 8 0,6 97,2 12,2
26 25.9.2022 09:00 9 0,8 97 12,1
27 25.9.2022 08:30 9 0,6 96,9 12
28 25.9.2022 08:00 9 0,2 96,6 12
29 25.9.2022 07:30 9 0,4 96,2 12
30 25.9.2022 07:00 5 0,2 95,5 12,1
31 25.9.2022 06:30 7 0,8 94,6 12,1
32 25.9.2022 06:00 8 0,6 91,1 12,5
33 25.9.2022 05:30 10 0 87,6 13
34 25.9.2022 05:00 10 0 84,4 13,7
35 25.9.2022 04:30 9 0 85,4 13,1
36 25.9.2022 04:00 0 0 86,3 13
37 25.9.2022 03:30 0 0 82,9 13,6
38 25.9.2022 03:00 0 0 82,7 13,7
39 25.9.2022 02:30 0 0 78,1 14,5
40 25.9.2022 02:00 0 0 72,7 15,2
41 25.9.2022 01:30 0 0 79 13,3
42 25.9.2022 01:00 0 0 80,6 12,7
43 25.9.2022 00:30 1 0 82 12,3
44 25.9.2022 00:00 0 0 82,1 12,3
45 24.9.2022 23:30 0 0 77,8 12,8
46 24.9.2022 23:00 0 0 73,5 13,4